Terminal Aerodrome Forecast
Issued by NWS Spokane, WA

Home | Current Version | Previous Version | Text Only | Print | Product List | Glossary On
Versions: 1 2 3 4 5 6 7 8 9 10 11 12 13 14 15 16 17 18 19 20 21 22
000
FTUS46 KOTX 230520
TAFLWS
TAF
KLWS 230520Z 2306/2406 17010KT P6SM SCT060 OVC080 WS020/24035KT
     FM231500 17012KT P6SM VCSH SCT050 OVC090
     FM232200 25012G18KT P6SM VCSH SCT060 BKN090
     FM240200 24005KT P6SM SCT060 BKN100=

USA.gov is the U.S. government's official web portal to all federal, state and local government web resources and services.